createdAt,value
2017-05-27T00:00:09.115Z,5.00
2017-05-27T00:02:36.013Z,4.32
2017-05-27T00:05:03.325Z,6.72
2017-05-27T00:07:30.244Z,4.52
2017-05-27T00:09:57.158Z,6.20
2017-05-27T00:12:24.478Z,5.86
2017-05-27T00:14:51.404Z,5.24
2017-05-27T00:17:18.293Z,4.14
2017-05-27T00:19:45.633Z,4.44
2017-05-27T00:22:12.542Z,5.02
2017-05-27T00:24:39.452Z,5.24
2017-05-27T00:27:06.724Z,5.46
2017-05-27T00:29:33.652Z,4.44
2017-05-27T00:32:00.559Z,4.72
2017-05-27T00:34:27.907Z,4.18
2017-05-27T00:36:54.818Z,4.98
2017-05-27T00:39:21.719Z,4.56
2017-05-27T00:41:49.056Z,5.28
2017-05-27T00:44:15.988Z,5.06
2017-05-27T00:46:42.912Z,4.48
2017-05-27T00:49:10.286Z,4.98
2017-05-27T00:51:37.692Z,4.58
2017-05-27T00:54:04.597Z,6.12
2017-05-27T00:56:31.884Z,5.16
2017-05-27T00:58:58.815Z,5.20
2017-05-27T01:01:25.720Z,5.20
2017-05-27T01:03:52.940Z,4.72
2017-05-27T01:06:19.837Z,5.54
2017-05-27T01:08:46.726Z,4.88
2017-05-27T01:11:14.434Z,4.48
2017-05-27T01:13:41.324Z,5.02
2017-05-27T01:16:08.427Z,4.62
2017-05-27T01:18:35.700Z,5.28
2017-05-27T01:21:02.604Z,6.36
2017-05-27T01:23:29.520Z,4.74
2017-05-27T01:25:56.813Z,5.72
2017-05-27T01:28:23.784Z,5.70
2017-05-27T01:30:50.732Z,6.40
2017-05-27T01:33:18.065Z,5.62
2017-05-27T01:35:44.953Z,6.80
2017-05-27T01:38:11.876Z,5.80
2017-05-27T01:40:39.227Z,8.62
2017-05-27T01:43:06.144Z,5.90
2017-05-27T01:45:33.092Z,5.38
2017-05-27T01:48:00.472Z,5.24
2017-05-27T01:50:27.405Z,5.28
2017-05-27T01:52:54.313Z,7.24
2017-05-27T01:55:21.560Z,6.62
2017-05-27T01:57:48.466Z,8.04
2017-05-27T02:00:15.360Z,6.76
2017-05-27T02:02:42.668Z,5.88
2017-05-27T02:05:09.585Z,6.46
2017-05-27T02:07:37.678Z,7.18
2017-05-27T02:10:05.135Z,6.42
2017-05-27T02:12:32.063Z,7.50
2017-05-27T02:14:58.977Z,6.30
2017-05-27T02:17:26.264Z,8.08
2017-05-27T02:19:53.168Z,7.08
2017-05-27T02:22:20.084Z,7.04
2017-05-27T02:24:47.425Z,7.58
2017-05-27T02:27:14.336Z,6.96
2017-05-27T02:29:41.224Z,7.82
2017-05-27T02:32:08.564Z,7.48
2017-05-27T02:34:35.460Z,7.12
2017-05-27T02:37:02.359Z,7.86
2017-05-27T02:39:29.604Z,7.64
2017-05-27T02:41:56.543Z,7.96
2017-05-27T02:44:23.442Z,6.30
2017-05-27T02:46:50.704Z,7.06
2017-05-27T02:49:18.129Z,7.38
2017-05-27T02:51:45.049Z,7.82
2017-05-27T02:54:12.392Z,8.32
2017-05-27T02:56:39.315Z,7.66
2017-05-27T02:59:06.245Z,7.86
2017-05-27T03:01:33.552Z,7.76
2017-05-27T03:04:00.487Z,7.38
2017-05-27T03:06:27.375Z,8.28
2017-05-27T03:08:54.685Z,8.38
2017-05-27T03:11:21.639Z,8.36
2017-05-27T03:13:48.581Z,8.44
2017-05-27T03:16:15.828Z,7.28
2017-05-27T03:18:42.743Z,7.40
2017-05-27T03:21:09.668Z,8.56
2017-05-27T03:23:36.973Z,7.52
2017-05-27T03:26:03.921Z,7.86
2017-05-27T03:28:30.840Z,8.18
2017-05-27T03:30:58.206Z,8.40
2017-05-27T03:33:25.133Z,7.12
2017-05-27T03:35:52.060Z,7.86
2017-05-27T03:38:19.256Z,7.22
2017-05-27T03:40:46.167Z,7.94
2017-05-27T03:43:13.087Z,8.34
2017-05-27T03:45:40.476Z,7.92
2017-05-27T03:48:07.409Z,10.00
2017-05-27T03:50:34.348Z,8.60
2017-05-27T03:53:01.713Z,8.78
2017-05-27T03:55:28.646Z,7.70
2017-05-27T03:57:55.566Z,8.74
2017-05-27T04:00:22.984Z,8.94
2017-05-27T04:02:49.881Z,9.08
2017-05-27T04:05:17.490Z,9.54
2017-05-27T04:07:44.740Z,8.80
2017-05-27T04:10:11.655Z,8.04
2017-05-27T04:12:38.553Z,7.72
2017-05-27T04:15:05.852Z,7.82
2017-05-27T04:17:32.812Z,7.58
2017-05-27T04:19:59.752Z,8.00
2017-05-27T04:22:27.074Z,7.18
2017-05-27T04:24:53.984Z,7.68
2017-05-27T04:27:20.888Z,8.38
2017-05-27T04:29:48.327Z,8.00
2017-05-27T04:32:15.297Z,8.00
2017-05-27T04:34:42.219Z,8.52
2017-05-27T04:37:09.560Z,8.14
2017-05-27T04:39:36.481Z,7.70
2017-05-27T04:42:03.393Z,8.40
2017-05-27T04:44:30.678Z,7.32
2017-05-27T04:46:57.611Z,8.06
2017-05-27T04:49:24.537Z,8.08
2017-05-27T04:51:51.928Z,7.22
2017-05-27T04:54:18.848Z,8.22
2017-05-27T04:56:45.780Z,7.76
2017-05-27T04:59:13.060Z,7.76
2017-05-27T05:01:39.969Z,6.98
2017-05-27T05:04:06.958Z,8.32
2017-05-27T05:06:34.305Z,7.34
2017-05-27T05:09:01.229Z,8.34
2017-05-27T05:11:28.667Z,7.12
2017-05-27T05:13:55.959Z,6.30
2017-05-27T05:16:22.889Z,6.88
2017-05-27T05:18:49.815Z,6.50
2017-05-27T05:21:17.197Z,6.06
2017-05-27T05:23:44.137Z,6.80
2017-05-27T05:26:11.069Z,5.64
2017-05-27T05:28:38.428Z,7.08
2017-05-27T05:31:05.351Z,6.32
2017-05-27T05:33:32.280Z,7.82
2017-05-27T05:35:59.545Z,7.68
2017-05-27T05:38:26.460Z,7.60
2017-05-27T05:40:53.448Z,7.08
2017-05-27T05:43:20.811Z,7.60
2017-05-27T05:45:47.715Z,6.94
2017-05-27T05:48:14.643Z,6.32
2017-05-27T05:50:42.024Z,6.44
2017-05-27T05:53:08.956Z,6.56
2017-05-27T05:55:35.867Z,7.04
2017-05-27T05:58:04.195Z,8.36
2017-05-27T06:00:31.113Z,5.74
2017-05-27T06:02:58.032Z,6.90
2017-05-27T06:05:25.297Z,5.60
2017-05-27T06:07:52.201Z,5.36
2017-05-27T06:10:19.125Z,4.80
2017-05-27T06:12:46.457Z,4.58
2017-05-27T06:15:13.366Z,4.52
2017-05-27T06:17:40.294Z,4.18
2017-05-27T06:20:07.607Z,5.82
2017-05-27T06:22:34.544Z,3.60
2017-05-27T06:25:01.458Z,4.10
2017-05-27T06:27:28.754Z,3.72
2017-05-27T06:29:55.717Z,3.44
2017-05-27T06:32:22.645Z,3.82
2017-05-27T06:34:49.973Z,4.00
2017-05-27T06:37:16.904Z,3.28
2017-05-27T06:39:43.822Z,3.44
2017-05-27T06:42:11.318Z,3.82
2017-05-27T06:44:38.230Z,3.70
2017-05-27T06:47:05.135Z,5.20
2017-05-27T06:49:32.440Z,4.84
2017-05-27T06:51:59.362Z,3.92
2017-05-27T06:54:26.441Z,4.18
2017-05-27T06:56:53.773Z,4.14
2017-05-27T06:59:20.720Z,4.87
2017-05-27T07:01:47.674Z,5.90
2017-05-27T07:04:15.040Z,5.24
2017-05-27T07:06:41.955Z,4.08
2017-05-27T07:09:08.874Z,4.06
2017-05-27T07:11:36.248Z,3.94
2017-05-27T07:14:03.193Z,3.68
2017-05-27T07:16:30.112Z,4.10
2017-05-27T07:18:57.389Z,3.66
2017-05-27T07:21:24.330Z,3.76
2017-05-27T07:23:51.274Z,3.64
2017-05-27T07:26:18.616Z,4.50
2017-05-27T07:28:45.540Z,3.70
2017-05-27T07:31:12.493Z,3.54
2017-05-27T07:33:39.878Z,3.92
2017-05-27T07:36:06.788Z,4.98
2017-05-27T07:38:33.725Z,4.68
2017-05-27T07:41:01.115Z,4.14
2017-05-27T07:43:28.089Z,3.58
2017-05-27T07:45:55.024Z,3.78
2017-05-27T07:48:22.352Z,3.92
2017-05-27T07:50:49.265Z,3.70
2017-05-27T07:53:16.211Z,4.06
2017-05-27T07:55:43.497Z,4.48
2017-05-27T07:58:10.408Z,6.22
2017-05-27T08:00:37.345Z,3.74
2017-05-27T08:03:04.611Z,3.86
2017-05-27T08:05:31.553Z,3.50
2017-05-27T08:07:58.462Z,3.90
2017-05-27T08:10:25.769Z,4.96
2017-05-27T08:12:52.714Z,4.04
2017-05-27T08:15:19.643Z,3.36
2017-05-27T08:17:47.000Z,4.16
2017-05-27T08:20:13.911Z,3.36
2017-05-27T08:22:40.821Z,3.92
2017-05-27T08:25:08.093Z,5.36
2017-05-27T08:27:34.989Z,3.58
2017-05-27T08:30:01.997Z,4.00
2017-05-27T08:32:45.250Z,3.14
2017-05-27T08:35:12.228Z,4.54
2017-05-27T08:37:39.137Z,3.44
2017-05-27T08:40:06.461Z,5.40
2017-05-27T08:42:33.384Z,2.82
2017-05-27T08:45:00.294Z,3.02
2017-05-27T08:47:27.619Z,2.78
2017-05-27T08:49:54.546Z,4.50
2017-05-27T08:52:21.458Z,2.68
2017-05-27T08:54:48.740Z,3.54
2017-05-27T08:57:15.692Z,3.72
2017-05-27T08:59:42.626Z,3.84
2017-05-27T09:02:09.992Z,3.54
2017-05-27T09:04:36.907Z,2.78
2017-05-27T09:07:03.837Z,2.50
2017-05-27T09:09:31.129Z,2.42
2017-05-27T09:11:58.035Z,3.76
2017-05-27T09:14:24.968Z,4.18
2017-05-27T09:16:52.237Z,3.00
2017-05-27T09:19:19.168Z,3.04
2017-05-27T09:21:46.070Z,3.28
2017-05-27T09:24:13.380Z,4.00
2017-05-27T09:26:40.320Z,2.92
2017-05-27T09:29:07.240Z,3.72
2017-05-27T09:31:34.613Z,2.82
2017-05-27T09:34:01.547Z,3.70
2017-05-27T09:36:28.465Z,3.38
2017-05-27T09:38:55.728Z,3.06
2017-05-27T09:41:22.643Z,3.68
2017-05-27T09:43:49.550Z,3.50
2017-05-27T09:46:16.912Z,2.66
2017-05-27T09:48:43.826Z,5.28
2017-05-27T09:51:10.755Z,3.64
2017-05-27T09:53:38.140Z,3.82
2017-05-27T09:56:05.112Z,3.52
2017-05-27T09:58:32.032Z,3.12
2017-05-27T10:00:59.352Z,2.72
2017-05-27T10:03:26.279Z,2.48
2017-05-27T10:05:53.227Z,2.28
2017-05-27T10:08:20.599Z,3.78
2017-05-27T10:10:47.528Z,2.68
2017-05-27T10:13:13.728Z,2.82
2017-05-27T10:15:41.033Z,3.16
2017-05-27T10:18:07.945Z,2.40
2017-05-27T10:20:34.883Z,2.80
2017-05-27T10:23:02.149Z,2.44
2017-05-27T10:25:29.062Z,3.06
2017-05-27T10:27:55.986Z,2.40
2017-05-27T10:30:23.282Z,2.36
2017-05-27T10:32:50.224Z,3.12
2017-05-27T10:35:17.141Z,7.62
2017-05-27T10:37:44.432Z,3.04
2017-05-27T10:40:11.332Z,2.50
2017-05-27T10:42:38.346Z,2.40
2017-05-27T10:45:05.649Z,2.20
2017-05-27T10:47:32.631Z,2.68
2017-05-27T10:49:59.615Z,2.64
2017-05-27T10:52:27.112Z,2.12
2017-05-27T10:54:54.024Z,3.10
2017-05-27T10:57:20.944Z,2.60
2017-05-27T10:59:49.123Z,2.08
2017-05-27T11:02:16.045Z,2.74
2017-05-27T11:04:42.929Z,2.74
2017-05-27T11:07:10.308Z,3.80
2017-05-27T11:09:37.226Z,3.16
2017-05-27T11:12:04.181Z,2.60
2017-05-27T11:14:31.643Z,2.82
2017-05-27T11:16:58.615Z,2.74
2017-05-27T11:19:25.557Z,3.02
2017-05-27T11:21:52.981Z,3.42
2017-05-27T11:24:19.900Z,4.82
2017-05-27T11:26:46.804Z,3.06
2017-05-27T11:29:14.098Z,3.10
2017-05-27T11:31:41.004Z,3.02
2017-05-27T11:34:07.928Z,3.38
2017-05-27T11:36:35.248Z,2.84
2017-05-27T11:39:02.216Z,2.54
2017-05-27T11:41:29.149Z,3.30
2017-05-27T11:43:56.440Z,2.68
2017-05-27T11:46:23.346Z,2.26
2017-05-27T11:48:50.300Z,2.90
2017-05-27T11:51:17.609Z,2.78
2017-05-27T11:53:44.529Z,3.24
2017-05-27T11:56:11.442Z,2.70
2017-05-27T11:58:38.808Z,3.50
2017-05-27T12:01:05.771Z,2.46
2017-05-27T12:03:32.738Z,2.86
2017-05-27T12:06:00.098Z,3.20
2017-05-27T12:08:27.007Z,2.72
2017-05-27T12:10:53.947Z,2.68
2017-05-27T12:13:21.244Z,4.34
2017-05-27T12:15:48.170Z,3.16
2017-05-27T12:18:15.089Z,2.54
2017-05-27T12:20:42.454Z,3.20
2017-05-27T12:23:09.349Z,2.80
2017-05-27T12:25:36.292Z,5.06
2017-05-27T12:28:03.606Z,2.44
2017-05-27T12:30:30.542Z,2.60
2017-05-27T12:32:57.477Z,2.74
2017-05-27T12:35:24.979Z,3.30
2017-05-27T12:37:51.947Z,2.80
2017-05-27T12:40:19.008Z,2.70
2017-05-27T12:42:46.398Z,3.40
2017-05-27T12:45:13.422Z,3.26
2017-05-27T12:47:40.397Z,3.08
2017-05-27T12:50:07.822Z,2.78
2017-05-27T12:52:34.733Z,3.10
2017-05-27T12:55:01.878Z,2.72
2017-05-27T12:57:29.148Z,2.76
2017-05-27T12:59:56.060Z,3.32
2017-05-27T13:02:22.979Z,3.38
2017-05-27T13:04:50.241Z,2.58
2017-05-27T13:07:17.149Z,2.92
2017-05-27T13:09:44.084Z,2.82
2017-05-27T13:12:11.355Z,2.66
2017-05-27T13:14:38.258Z,2.60
2017-05-27T13:17:05.192Z,2.62
2017-05-27T13:19:32.484Z,3.18
2017-05-27T13:21:59.437Z,2.74
2017-05-27T13:24:26.364Z,2.38
2017-05-27T13:26:53.685Z,2.84
2017-05-27T13:29:20.643Z,2.52
2017-05-27T13:31:47.587Z,2.88
2017-05-27T13:34:15.040Z,2.74
2017-05-27T13:36:42.006Z,2.48
2017-05-27T13:39:08.926Z,2.10
2017-05-27T13:41:36.295Z,2.26
2017-05-27T13:44:03.203Z,2.78
2017-05-27T13:46:30.151Z,3.64
2017-05-27T13:48:57.514Z,1.96
2017-05-27T13:51:24.471Z,2.06
2017-05-27T13:53:51.433Z,2.90
2017-05-27T13:56:18.768Z,2.24
2017-05-27T13:58:45.710Z,2.24
2017-05-27T14:01:12.638Z,2.84
2017-05-27T14:03:39.987Z,2.10
2017-05-27T14:06:06.912Z,2.30
2017-05-27T14:08:33.836Z,2.28
2017-05-27T14:11:01.133Z,1.82
2017-05-27T14:13:28.071Z,3.34
2017-05-27T14:15:54.993Z,2.40
2017-05-27T14:18:22.260Z,1.92
2017-05-27T14:20:49.170Z,2.16
2017-05-27T14:23:16.076Z,1.86
2017-05-27T14:25:43.384Z,2.10
2017-05-27T14:28:10.297Z,3.06
2017-05-27T14:30:37.223Z,2.04
2017-05-27T14:33:04.512Z,1.90
2017-05-27T14:35:31.466Z,2.34
2017-05-27T14:37:58.374Z,1.82
2017-05-27T14:40:25.652Z,1.94
2017-05-27T14:42:52.555Z,1.74
2017-05-27T14:45:19.496Z,2.12
2017-05-27T14:47:46.780Z,2.42
2017-05-27T14:50:13.746Z,2.08
2017-05-27T14:52:40.691Z,2.12
2017-05-27T14:55:08.143Z,2.10
2017-05-27T14:57:35.081Z,2.24
2017-05-27T15:00:02.012Z,1.92
2017-05-27T15:02:29.324Z,1.78
2017-05-27T15:04:56.250Z,4.72
2017-05-27T15:07:23.175Z,1.58
2017-05-27T15:09:50.498Z,1.68
2017-05-27T15:12:17.404Z,2.02
2017-05-27T15:14:44.309Z,1.58
2017-05-27T15:17:11.568Z,1.70
2017-05-27T15:19:38.596Z,1.66
2017-05-27T15:22:05.533Z,2.52
2017-05-27T15:24:32.882Z,1.40
2017-05-27T15:26:59.804Z,1.30
2017-05-27T15:29:27.331Z,1.52
2017-05-27T15:31:54.640Z,1.90
2017-05-27T15:34:21.682Z,1.57
2017-05-27T15:36:48.618Z,1.45
2017-05-27T15:39:15.878Z,1.02
2017-05-27T15:41:42.824Z,1.82
2017-05-27T15:44:09.761Z,1.40
2017-05-27T15:46:37.112Z,1.00
2017-05-27T15:49:04.040Z,1.10
2017-05-27T15:51:30.996Z,1.50
2017-05-27T15:53:58.340Z,1.15
2017-05-27T15:56:25.276Z,1.38
2017-05-27T15:58:52.216Z,1.25
2017-05-27T16:01:19.490Z,1.02
2017-05-27T16:03:46.427Z,0.72
2017-05-27T16:06:13.338Z,0.97
2017-05-27T16:08:40.608Z,1.15
2017-05-27T16:11:07.543Z,0.98
2017-05-27T16:13:34.467Z,0.90
2017-05-27T16:16:01.769Z,0.70
2017-05-27T16:18:28.677Z,1.12
2017-05-27T16:20:55.640Z,1.38
2017-05-27T16:23:22.975Z,1.15
2017-05-27T16:25:49.885Z,1.27
2017-05-27T16:28:16.805Z,0.88
2017-05-27T16:30:44.140Z,0.88
2017-05-27T16:33:11.063Z,0.93
2017-05-27T16:35:38.119Z,1.40
2017-05-27T16:38:05.465Z,0.77
2017-05-27T16:40:32.380Z,0.92
2017-05-27T16:42:59.298Z,0.80
2017-05-27T16:45:26.600Z,1.52
2017-05-27T16:47:53.519Z,0.83
2017-05-27T16:50:20.491Z,1.00
2017-05-27T16:52:47.855Z,1.22
2017-05-27T16:55:14.890Z,1.12
2017-05-27T16:57:41.822Z,1.28
2017-05-27T17:00:09.608Z,1.00
2017-05-27T17:02:36.520Z,1.00
2017-05-27T17:05:03.481Z,0.93
2017-05-27T17:07:30.811Z,1.10
2017-05-27T17:09:57.739Z,1.25
2017-05-27T17:12:24.671Z,1.48
2017-05-27T17:14:51.980Z,0.80
2017-05-27T17:17:25.545Z,1.10
2017-05-27T17:19:54.468Z,1.08
2017-05-27T17:22:21.392Z,1.37
2017-05-27T17:24:48.289Z,1.03
2017-05-27T17:27:15.580Z,1.02
2017-05-27T17:29:42.536Z,2.73
2017-05-27T17:32:09.469Z,1.42
2017-05-27T17:34:36.752Z,2.30
2017-05-27T17:37:03.768Z,2.00
2017-05-27T17:39:30.671Z,11.82
2017-05-27T17:41:57.944Z,2.63
2017-05-27T17:44:24.892Z,8.42
2017-05-27T17:46:51.889Z,1.37
2017-05-27T17:49:19.987Z,3.45
2017-05-27T17:51:46.964Z,3.05
2017-05-27T17:54:13.892Z,2.43
2017-05-27T17:56:41.241Z,3.12
2017-05-27T17:59:08.197Z,1.55
2017-05-27T18:01:35.123Z,1.25
2017-05-27T18:04:10.180Z,1.43
2017-05-27T18:06:37.086Z,8.43
2017-05-27T18:09:04.059Z,10.67
2017-05-27T18:11:31.388Z,3.50
2017-05-27T18:13:58.360Z,1.72
2017-05-27T18:16:25.299Z,2.22
2017-05-27T18:18:52.656Z,1.20
2017-05-27T18:21:19.574Z,2.00
2017-05-27T18:23:46.521Z,2.98
2017-05-27T18:26:13.893Z,2.66
2017-05-27T18:28:40.837Z,1.52
2017-05-27T18:31:07.775Z,1.50
2017-05-27T18:33:35.136Z,1.38
2017-05-27T18:36:02.096Z,1.24
2017-05-27T18:38:29.047Z,1.82
2017-05-27T18:40:56.368Z,3.74
2017-05-27T18:43:23.319Z,3.30
2017-05-27T18:45:50.257Z,1.42
2017-05-27T18:48:17.544Z,1.80
2017-05-27T18:50:44.441Z,2.56
2017-05-27T18:53:11.853Z,3.90
2017-05-27T18:55:39.147Z,1.76
2017-05-27T18:58:06.065Z,1.70
2017-05-27T19:00:33.001Z,1.98
2017-05-27T19:03:00.296Z,1.66
2017-05-27T19:05:27.237Z,2.94
2017-05-27T19:07:54.168Z,2.17
2017-05-27T19:10:21.631Z,1.60
2017-05-27T19:12:48.560Z,2.32
2017-05-27T19:15:15.464Z,2.10
2017-05-27T19:17:42.857Z,2.60
2017-05-27T19:20:09.800Z,1.94
2017-05-27T19:22:36.716Z,2.10
2017-05-27T19:25:03.991Z,2.86
2017-05-27T19:27:30.940Z,3.66
2017-05-27T19:29:57.868Z,3.84
2017-05-27T19:32:25.135Z,2.80
2017-05-27T19:34:52.072Z,2.20
2017-05-27T19:37:18.989Z,2.08
2017-05-27T19:39:46.377Z,1.82
2017-05-27T19:42:13.296Z,2.12
2017-05-27T19:44:40.241Z,2.92
2017-05-27T19:47:07.631Z,2.00
2017-05-27T19:49:34.580Z,3.20
2017-05-27T19:52:01.477Z,3.00
2017-05-27T19:54:28.828Z,2.14
2017-05-27T19:56:55.772Z,2.20
2017-05-27T19:59:22.825Z,2.84
2017-05-27T20:01:50.185Z,2.44
2017-05-27T20:04:17.111Z,1.90
2017-05-27T20:06:44.054Z,2.80
2017-05-27T20:09:11.405Z,3.22
2017-05-27T20:11:38.313Z,2.28
2017-05-27T20:14:05.999Z,3.24
2017-05-27T20:16:33.380Z,2.80
2017-05-27T20:19:00.290Z,2.18
2017-05-27T20:21:27.205Z,2.40
2017-05-27T20:23:54.500Z,2.88
2017-05-27T20:26:21.420Z,2.04
2017-05-27T20:28:48.372Z,3.36
2017-05-27T20:31:16.280Z,1.70
2017-05-27T20:33:43.217Z,2.96
2017-05-27T20:36:10.138Z,2.22
2017-05-27T20:38:37.500Z,2.02
2017-05-27T20:41:05.096Z,2.40
2017-05-27T20:43:31.993Z,1.68
2017-05-27T20:45:59.361Z,3.10
2017-05-27T20:48:26.313Z,4.40
2017-05-27T20:50:53.257Z,3.66
2017-05-27T20:53:20.589Z,3.10
2017-05-27T20:55:47.625Z,2.10
2017-05-27T20:58:14.556Z,3.64
2017-05-27T21:00:41.912Z,4.36
2017-05-27T21:03:08.876Z,3.62
2017-05-27T21:05:35.909Z,2.14
2017-05-27T21:08:03.362Z,2.64
2017-05-27T21:10:30.312Z,3.82
2017-05-27T21:12:57.413Z,2.68
2017-05-27T21:15:24.693Z,2.70
2017-05-27T21:17:51.656Z,3.42
2017-05-27T21:20:18.608Z,1.74
2017-05-27T21:22:45.945Z,2.50
2017-05-27T21:25:12.863Z,2.00
2017-05-27T21:27:39.796Z,2.12
2017-05-27T21:30:07.181Z,1.96
2017-05-27T21:32:34.104Z,1.92
2017-05-27T21:35:01.060Z,2.28
2017-05-27T21:37:28.392Z,2.66
2017-05-27T21:39:55.329Z,2.06
2017-05-27T21:42:22.301Z,3.08
2017-05-27T21:44:49.718Z,2.14
2017-05-27T21:47:16.644Z,2.30
2017-05-27T21:49:43.552Z,3.56
2017-05-27T21:52:10.904Z,2.36
2017-05-27T21:54:37.837Z,2.34
2017-05-27T21:57:04.809Z,3.32
2017-05-27T21:59:32.133Z,2.50
2017-05-27T22:01:59.072Z,2.30
2017-05-27T22:04:26.017Z,2.92
2017-05-27T22:06:53.358Z,2.64
2017-05-27T22:09:20.284Z,1.92
2017-05-27T22:11:47.254Z,2.22
2017-05-27T22:14:14.592Z,2.54
2017-05-27T22:16:41.493Z,2.22
2017-05-27T22:19:08.377Z,2.38
2017-05-27T22:21:35.643Z,2.46
2017-05-27T22:24:02.594Z,2.34
2017-05-27T22:26:29.532Z,2.40
2017-05-27T22:28:56.786Z,2.30
2017-05-27T22:31:23.817Z,3.18
2017-05-27T22:33:50.810Z,2.58
2017-05-27T22:36:18.101Z,2.16
2017-05-27T22:38:44.980Z,2.38
2017-05-27T22:41:11.889Z,2.30
2017-05-27T22:43:39.248Z,2.48
2017-05-27T22:46:06.180Z,2.04
2017-05-27T22:48:33.132Z,2.32
2017-05-27T22:51:00.487Z,2.60
2017-05-27T22:53:27.425Z,1.98
2017-05-27T22:55:54.329Z,1.94
2017-05-27T22:58:21.624Z,2.76
2017-05-27T23:00:48.520Z,3.22
2017-05-27T23:03:15.440Z,3.24
2017-05-27T23:05:42.764Z,2.80
2017-05-27T23:08:09.662Z,2.42
2017-05-27T23:10:36.644Z,2.50
2017-05-27T23:13:03.980Z,4.98
2017-05-27T23:15:30.914Z,2.28
2017-05-27T23:17:57.837Z,2.72
2017-05-27T23:20:25.085Z,2.50
2017-05-27T23:22:51.997Z,2.40
2017-05-27T23:25:18.932Z,3.96
2017-05-27T23:27:46.201Z,2.40
2017-05-27T23:30:13.127Z,2.42
2017-05-27T23:32:40.045Z,2.32
2017-05-27T23:35:07.304Z,2.64
2017-05-27T23:37:34.216Z,3.18
2017-05-27T23:40:01.130Z,2.42
2017-05-27T23:42:28.480Z,2.44
2017-05-27T23:44:55.365Z,2.22
2017-05-27T23:47:22.260Z,4.40
2017-05-27T23:49:50.230Z,2.66
2017-05-27T23:52:17.147Z,2.56
2017-05-27T23:54:44.036Z,2.74
2017-05-27T23:57:11.333Z,2.60
2017-05-27T23:59:38.228Z,2.40
